EZY24YG EGNM-EGAA
Flight info
| Callsign | EZY24YG |
|---|---|
| Flight time | 0h 42m |
| Altitude | 24000 |
| Route | POL Y70 KOLID L70 GUNTU Z196 DIGMA M146 IPSET P6 BELZU |
| Aircraft | A320/M-SDE3FGHIRWY/LB1 |
Departure
| Time | 2026-05-06 19:34 |
|---|---|
| Airport | Leeds Bradford Airport (EGNM) |
Arrival
| Time | 2026-05-06 20:16 |
|---|---|
| Airport | Belfast International Airport (EGAA) |
| Time | Latitude | Longitude | Altitude | Speed | Heading |
|---|---|---|---|---|---|
| 2026-05-06 18:49 | 53.86882 | -1.65690 | 665 ft | 0 kts | 1° |
| 2026-05-06 19:23 | 53.86866 | -1.65690 | 665 ft | 4 kts | 1° |
| 2026-05-06 19:24 | 53.86844 | -1.65691 | 665 ft | 3 kts | 1° |
| 2026-05-06 19:24 | 53.86822 | -1.65684 | 664 ft | 4 kts | 306° |
| 2026-05-06 19:24 | 53.86816 | -1.65648 | 663 ft | 4 kts | 271° |
| 2026-05-06 19:24 | 53.86816 | -1.65607 | 664 ft | 1 kts | 271° |
| 2026-05-06 19:25 | 53.86816 | -1.65606 | 664 ft | 0 kts | 271° |
| 2026-05-06 19:29 | 53.86816 | -1.65625 | 663 ft | 3 kts | 271° |
| 2026-05-06 19:29 | 53.86816 | -1.65737 | 665 ft | 11 kts | 263° |
| 2026-05-06 19:30 | 53.86813 | -1.65834 | 665 ft | 13 kts | 270° |
| 2026-05-06 19:30 | 53.86814 | -1.65989 | 666 ft | 13 kts | 271° |
| 2026-05-06 19:30 | 53.86837 | -1.66118 | 666 ft | 11 kts | 313° |
| 2026-05-06 19:30 | 53.86886 | -1.66196 | 666 ft | 9 kts | 317° |
| 2026-05-06 19:31 | 53.86929 | -1.66261 | 666 ft | 8 kts | 317° |
| 2026-05-06 19:31 | 53.86954 | -1.66314 | 668 ft | 4 kts | 305° |
| 2026-05-06 19:31 | 53.86999 | -1.66500 | 673 ft | 10 kts | 259° |
| 2026-05-06 19:32 | 53.86974 | -1.66602 | 671 ft | 8 kts | 240° |
| 2026-05-06 19:32 | 53.86935 | -1.66584 | 671 ft | 6 kts | 138° |
| 2026-05-06 19:32 | 53.86933 | -1.66581 | 671 ft | 0 kts | 138° |
| 2026-05-06 19:33 | 53.86929 | -1.66575 | 671 ft | 8 kts | 138° |
| 2026-05-06 19:33 | 53.86746 | -1.66297 | 668 ft | 71 kts | 138° |
| 2026-05-06 19:33 | 53.86214 | -1.65481 | 680 ft | 132 kts | 137° |
| 2026-05-06 19:33 | 53.85472 | -1.64346 | 1108 ft | 145 kts | 138° |
| 2026-05-06 19:34 | 53.84718 | -1.63208 | 1775 ft | 147 kts | 138° |
| 2026-05-06 19:34 | 53.83913 | -1.61978 | 2135 ft | 166 kts | 138° |
| 2026-05-06 19:34 | 53.82951 | -1.60675 | 2414 ft | 189 kts | 153° |
| 2026-05-06 19:34 | 53.81608 | -1.60153 | 2670 ft | 211 kts | 184° |
| 2026-05-06 19:35 | 53.80173 | -1.60988 | 2992 ft | 233 kts | 217° |
| 2026-05-06 19:35 | 53.79193 | -1.63273 | 3457 ft | 252 kts | 253° |
| 2026-05-06 19:35 | 53.78853 | -1.66220 | 4251 ft | 258 kts | 261° |
| 2026-05-06 19:35 | 53.78562 | -1.69234 | 5118 ft | 261 kts | 261° |
| 2026-05-06 19:36 | 53.78273 | -1.72289 | 5976 ft | 265 kts | 261° |
| 2026-05-06 19:36 | 53.77972 | -1.75389 | 6696 ft | 270 kts | 261° |
| 2026-05-06 19:36 | 53.77660 | -1.78527 | 6934 ft | 271 kts | 260° |
| 2026-05-06 19:36 | 53.77340 | -1.81663 | 6997 ft | 271 kts | 260° |
| 2026-05-06 19:37 | 53.77018 | -1.84798 | 7012 ft | 271 kts | 260° |
| 2026-05-06 19:37 | 53.76697 | -1.87933 | 7010 ft | 271 kts | 260° |
| 2026-05-06 19:37 | 53.76375 | -1.91066 | 7009 ft | 271 kts | 260° |
| 2026-05-06 19:37 | 53.76050 | -1.94197 | 7011 ft | 271 kts | 260° |
| 2026-05-06 19:38 | 53.75725 | -1.97331 | 7009 ft | 271 kts | 260° |
| 2026-05-06 19:38 | 53.75400 | -2.00464 | 7011 ft | 271 kts | 260° |
| 2026-05-06 19:38 | 53.75073 | -2.03592 | 7013 ft | 270 kts | 260° |
| 2026-05-06 19:38 | 53.74746 | -2.06721 | 7009 ft | 270 kts | 260° |
| 2026-05-06 19:39 | 53.74394 | -2.09841 | 7012 ft | 271 kts | 255° |
| 2026-05-06 19:39 | 53.73695 | -2.12824 | 7600 ft | 274 kts | 245° |
| 2026-05-06 19:39 | 53.72904 | -2.15755 | 8487 ft | 275 kts | 245° |
| 2026-05-06 19:39 | 53.72116 | -2.18726 | 9287 ft | 279 kts | 246° |
| 2026-05-06 19:40 | 53.71322 | -2.21734 | 10078 ft | 282 kts | 246° |
| 2026-05-06 19:40 | 53.70516 | -2.24774 | 10835 ft | 285 kts | 246° |
| 2026-05-06 19:40 | 53.69702 | -2.27840 | 11587 ft | 288 kts | 246° |
| 2026-05-06 19:40 | 53.68875 | -2.30939 | 12315 ft | 291 kts | 245° |
| 2026-05-06 19:41 | 53.68034 | -2.34072 | 13023 ft | 294 kts | 245° |
| 2026-05-06 19:41 | 53.67183 | -2.37237 | 13706 ft | 298 kts | 245° |
| 2026-05-06 19:41 | 53.66322 | -2.40435 | 14381 ft | 301 kts | 245° |
| 2026-05-06 19:41 | 53.65452 | -2.43664 | 15053 ft | 304 kts | 245° |
| 2026-05-06 19:42 | 53.64572 | -2.46925 | 15696 ft | 307 kts | 245° |
| 2026-05-06 19:42 | 53.63683 | -2.50216 | 16323 ft | 310 kts | 245° |
| 2026-05-06 19:42 | 53.62786 | -2.53534 | 16924 ft | 313 kts | 245° |
| 2026-05-06 19:42 | 53.61903 | -2.56904 | 17539 ft | 316 kts | 247° |
| 2026-05-06 19:43 | 53.61056 | -2.60327 | 18144 ft | 318 kts | 248° |
| 2026-05-06 19:43 | 53.60220 | -2.63791 | 18720 ft | 321 kts | 248° |
| 2026-05-06 19:43 | 53.59381 | -2.67285 | 19281 ft | 323 kts | 248° |
| 2026-05-06 19:43 | 53.58536 | -2.70810 | 19824 ft | 326 kts | 249° |
| 2026-05-06 19:44 | 53.57903 | -2.74486 | 20354 ft | 329 kts | 259° |
| 2026-05-06 19:44 | 53.57632 | -2.78317 | 20869 ft | 331 kts | 268° |
| 2026-05-06 19:44 | 53.57719 | -2.82203 | 21371 ft | 334 kts | 275° |
| 2026-05-06 19:44 | 53.57921 | -2.86111 | 21869 ft | 336 kts | 275° |
| 2026-05-06 19:45 | 53.58121 | -2.90047 | 22359 ft | 339 kts | 275° |
| 2026-05-06 19:45 | 53.58313 | -2.93961 | 22833 ft | 341 kts | 275° |
| 2026-05-06 19:45 | 53.58506 | -2.98012 | 23313 ft | 344 kts | 274° |
| 2026-05-06 19:45 | 53.58696 | -3.02037 | 23775 ft | 346 kts | 275° |
| 2026-05-06 19:46 | 53.58887 | -3.06037 | 23969 ft | 348 kts | 274° |
| 2026-05-06 19:46 | 53.59083 | -3.10202 | 24011 ft | 360 kts | 274° |
| 2026-05-06 19:46 | 53.59284 | -3.14496 | 24012 ft | 376 kts | 275° |
| 2026-05-06 19:46 | 53.59667 | -3.18872 | 24010 ft | 391 kts | 282° |
| 2026-05-06 19:47 | 53.60237 | -3.23427 | 24009 ft | 405 kts | 282° |
| 2026-05-06 19:47 | 53.60820 | -3.28109 | 24008 ft | 411 kts | 282° |
| 2026-05-06 19:47 | 53.61407 | -3.32836 | 24008 ft | 413 kts | 282° |
| 2026-05-06 19:47 | 53.62000 | -3.37633 | 24009 ft | 413 kts | 282° |
| 2026-05-06 19:48 | 53.62581 | -3.42376 | 24008 ft | 413 kts | 282° |
| 2026-05-06 19:48 | 53.63152 | -3.47058 | 24008 ft | 414 kts | 281° |
| 2026-05-06 19:48 | 53.63736 | -3.51866 | 24009 ft | 414 kts | 281° |
| 2026-05-06 19:48 | 53.64319 | -3.56613 | 24008 ft | 413 kts | 283° |
| 2026-05-06 19:49 | 53.65161 | -3.61240 | 24011 ft | 413 kts | 292° |
| 2026-05-06 19:49 | 53.66409 | -3.65528 | 24007 ft | 413 kts | 301° |
| 2026-05-06 19:49 | 53.68021 | -3.69536 | 24007 ft | 413 kts | 305° |
| 2026-05-06 19:49 | 53.69682 | -3.73489 | 24003 ft | 413 kts | 305° |
| 2026-05-06 19:50 | 53.71335 | -3.77454 | 24001 ft | 413 kts | 305° |
| 2026-05-06 19:50 | 53.72985 | -3.81424 | 24000 ft | 413 kts | 305° |
| 2026-05-06 19:50 | 53.74633 | -3.85395 | 23999 ft | 413 kts | 305° |
| 2026-05-06 19:50 | 53.76282 | -3.89368 | 23998 ft | 413 kts | 305° |
| 2026-05-06 19:51 | 53.77929 | -3.93346 | 23998 ft | 413 kts | 305° |
| 2026-05-06 19:51 | 53.79576 | -3.97322 | 23997 ft | 413 kts | 305° |
| 2026-05-06 19:51 | 53.81223 | -4.01302 | 23997 ft | 413 kts | 305° |
| 2026-05-06 19:51 | 53.82869 | -4.05287 | 23998 ft | 413 kts | 305° |
| 2026-05-06 19:52 | 53.84511 | -4.09281 | 23998 ft | 413 kts | 304° |
| 2026-05-06 19:52 | 53.86149 | -4.13275 | 23998 ft | 413 kts | 304° |
| 2026-05-06 19:52 | 53.87788 | -4.17273 | 23999 ft | 413 kts | 304° |
| 2026-05-06 19:52 | 53.89428 | -4.21275 | 23999 ft | 413 kts | 304° |
| 2026-05-06 19:53 | 53.91065 | -4.25279 | 23999 ft | 413 kts | 304° |
| 2026-05-06 19:53 | 53.92700 | -4.29287 | 23999 ft | 413 kts | 304° |
| 2026-05-06 19:53 | 53.94331 | -4.33291 | 23998 ft | 413 kts | 304° |
| 2026-05-06 19:53 | 53.95966 | -4.37304 | 23998 ft | 413 kts | 304° |
| 2026-05-06 19:54 | 53.97598 | -4.41316 | 23998 ft | 413 kts | 304° |
| 2026-05-06 19:54 | 53.99228 | -4.45338 | 23999 ft | 413 kts | 304° |
| 2026-05-06 19:54 | 54.00855 | -4.49360 | 24000 ft | 413 kts | 304° |
| 2026-05-06 19:54 | 54.02611 | -4.53229 | 24000 ft | 413 kts | 312° |
| 2026-05-06 19:55 | 54.04560 | -4.56828 | 24002 ft | 413 kts | 313° |
| 2026-05-06 19:55 | 54.06503 | -4.60430 | 24003 ft | 413 kts | 312° |
| 2026-05-06 19:55 | 54.08445 | -4.64043 | 24004 ft | 413 kts | 312° |
| 2026-05-06 19:55 | 54.10384 | -4.67658 | 24004 ft | 413 kts | 312° |
| 2026-05-06 19:56 | 54.12324 | -4.71275 | 24002 ft | 413 kts | 312° |
| 2026-05-06 19:56 | 54.14263 | -4.74897 | 24000 ft | 413 kts | 312° |
| 2026-05-06 19:56 | 54.16198 | -4.78519 | 24001 ft | 413 kts | 312° |
| 2026-05-06 19:56 | 54.18135 | -4.82147 | 24002 ft | 413 kts | 312° |
| 2026-05-06 19:57 | 54.20070 | -4.85770 | 24002 ft | 413 kts | 312° |
| 2026-05-06 19:57 | 54.22001 | -4.89390 | 23837 ft | 409 kts | 312° |
| 2026-05-06 19:57 | 54.23904 | -4.92969 | 23584 ft | 405 kts | 312° |
| 2026-05-06 19:57 | 54.25789 | -4.96524 | 23258 ft | 401 kts | 312° |
| 2026-05-06 19:58 | 54.27649 | -5.00036 | 22718 ft | 397 kts | 312° |
| 2026-05-06 19:58 | 54.29489 | -5.03514 | 22204 ft | 392 kts | 312° |
| 2026-05-06 19:58 | 54.31311 | -5.06957 | 21696 ft | 388 kts | 312° |
| 2026-05-06 19:58 | 54.33115 | -5.10372 | 21232 ft | 384 kts | 312° |
| 2026-05-06 19:59 | 54.34894 | -5.13746 | 20762 ft | 380 kts | 312° |
| 2026-05-06 19:59 | 54.36654 | -5.17088 | 20310 ft | 375 kts | 312° |
| 2026-05-06 19:59 | 54.38392 | -5.20396 | 19851 ft | 371 kts | 312° |
| 2026-05-06 19:59 | 54.40111 | -5.23675 | 19402 ft | 368 kts | 312° |
| 2026-05-06 20:00 | 54.41815 | -5.26937 | 18927 ft | 370 kts | 311° |
| 2026-05-06 20:00 | 54.43546 | -5.30250 | 18373 ft | 373 kts | 312° |
| 2026-05-06 20:00 | 54.45277 | -5.33557 | 17823 ft | 372 kts | 312° |
| 2026-05-06 20:00 | 54.47027 | -5.36815 | 17269 ft | 371 kts | 313° |
| 2026-05-06 20:01 | 54.48808 | -5.40017 | 16727 ft | 370 kts | 314° |
| 2026-05-06 20:01 | 54.50547 | -5.43264 | 16163 ft | 369 kts | 308° |
| 2026-05-06 20:01 | 54.51948 | -5.46937 | 15617 ft | 367 kts | 297° |
| 2026-05-06 20:01 | 54.52918 | -5.50995 | 15067 ft | 366 kts | 288° |
| 2026-05-06 20:02 | 54.53694 | -5.55163 | 14516 ft | 365 kts | 288° |
| 2026-05-06 20:02 | 54.54465 | -5.59322 | 13964 ft | 364 kts | 288° |
| 2026-05-06 20:02 | 54.55231 | -5.63459 | 13411 ft | 362 kts | 288° |
| 2026-05-06 20:02 | 54.55994 | -5.67588 | 12863 ft | 361 kts | 288° |
| 2026-05-06 20:03 | 54.56752 | -5.71694 | 12312 ft | 359 kts | 288° |
| 2026-05-06 20:03 | 54.57506 | -5.75771 | 11764 ft | 356 kts | 288° |
| 2026-05-06 20:03 | 54.58256 | -5.79826 | 11215 ft | 354 kts | 288° |
| 2026-05-06 20:03 | 54.58998 | -5.83854 | 10659 ft | 351 kts | 287° |
| 2026-05-06 20:04 | 54.59728 | -5.87838 | 10148 ft | 346 kts | 287° |
| 2026-05-06 20:04 | 54.60437 | -5.91713 | 9981 ft | 331 kts | 287° |
| 2026-05-06 20:04 | 54.61115 | -5.95422 | 9852 ft | 317 kts | 287° |
| 2026-05-06 20:04 | 54.61764 | -5.98975 | 9728 ft | 304 kts | 287° |
| 2026-05-06 20:05 | 54.62385 | -6.02391 | 9594 ft | 293 kts | 287° |
| 2026-05-06 20:05 | 54.62984 | -6.05684 | 9476 ft | 282 kts | 287° |
| 2026-05-06 20:05 | 54.63559 | -6.08861 | 9320 ft | 273 kts | 287° |
| 2026-05-06 20:05 | 54.64114 | -6.11930 | 9169 ft | 264 kts | 287° |
| 2026-05-06 20:06 | 54.64650 | -6.14904 | 9023 ft | 255 kts | 287° |
| 2026-05-06 20:06 | 54.65168 | -6.17776 | 8868 ft | 246 kts | 287° |
| 2026-05-06 20:06 | 54.65804 | -6.20458 | 8715 ft | 238 kts | 302° |
| 2026-05-06 20:06 | 54.66842 | -6.22623 | 8562 ft | 233 kts | 319° |
| 2026-05-06 20:07 | 54.68194 | -6.24136 | 8421 ft | 232 kts | 336° |
| 2026-05-06 20:07 | 54.69713 | -6.25037 | 8201 ft | 230 kts | 342° |
| 2026-05-06 20:07 | 54.71235 | -6.25891 | 7951 ft | 230 kts | 342° |
| 2026-05-06 20:07 | 54.72758 | -6.26755 | 7585 ft | 233 kts | 342° |
| 2026-05-06 20:08 | 54.74371 | -6.27672 | 6833 ft | 254 kts | 342° |
| 2026-05-06 20:08 | 54.75993 | -6.28776 | 6613 ft | 248 kts | 329° |
| 2026-05-06 20:08 | 54.77303 | -6.30658 | 6337 ft | 245 kts | 309° |
| 2026-05-06 20:08 | 54.78179 | -6.33170 | 6027 ft | 244 kts | 296° |
| 2026-05-06 20:09 | 54.78929 | -6.35800 | 5707 ft | 243 kts | 296° |
| 2026-05-06 20:09 | 54.79681 | -6.38417 | 5389 ft | 242 kts | 296° |
| 2026-05-06 20:09 | 54.80463 | -6.40970 | 4947 ft | 237 kts | 306° |
| 2026-05-06 20:09 | 54.81717 | -6.42758 | 4353 ft | 235 kts | 338° |
| 2026-05-06 20:10 | 54.83310 | -6.43159 | 3776 ft | 233 kts | 8° |
| 2026-05-06 20:10 | 54.84782 | -6.42090 | 3189 ft | 231 kts | 39° |
| 2026-05-06 20:10 | 54.85723 | -6.39914 | 2619 ft | 222 kts | 71° |
| 2026-05-06 20:10 | 54.85877 | -6.37437 | 2505 ft | 194 kts | 99° |
| 2026-05-06 20:11 | 54.85454 | -6.35367 | 2501 ft | 176 kts | 123° |
| 2026-05-06 20:11 | 54.84654 | -6.33827 | 2503 ft | 170 kts | 144° |
| 2026-05-06 20:11 | 54.83981 | -6.33152 | 2512 ft | 169 kts | 159° |
| 2026-05-06 20:11 | 54.82495 | -6.32294 | 2526 ft | 167 kts | 162° |
| 2026-05-06 20:12 | 54.81767 | -6.31882 | 2519 ft | 165 kts | 162° |
| 2026-05-06 20:12 | 54.80678 | -6.31265 | 2520 ft | 164 kts | 162° |
| 2026-05-06 20:12 | 54.79595 | -6.30652 | 2520 ft | 164 kts | 162° |
| 2026-05-06 20:12 | 54.78514 | -6.30040 | 2537 ft | 163 kts | 162° |
| 2026-05-06 20:13 | 54.77436 | -6.29430 | 2530 ft | 162 kts | 162° |
| 2026-05-06 20:13 | 54.76372 | -6.28829 | 2365 ft | 155 kts | 162° |
| 2026-05-06 20:13 | 54.75387 | -6.28272 | 2170 ft | 144 kts | 162° |
| 2026-05-06 20:13 | 54.74448 | -6.27741 | 1992 ft | 140 kts | 162° |
| 2026-05-06 20:14 | 54.73527 | -6.27221 | 1813 ft | 139 kts | 162° |
| 2026-05-06 20:14 | 54.72613 | -6.26705 | 1633 ft | 138 kts | 162° |
| 2026-05-06 20:14 | 54.71704 | -6.26193 | 1453 ft | 137 kts | 162° |
| 2026-05-06 20:14 | 54.70798 | -6.25682 | 1272 ft | 137 kts | 162° |
| 2026-05-06 20:15 | 54.69895 | -6.25173 | 1091 ft | 136 kts | 162° |
| 2026-05-06 20:15 | 54.68995 | -6.24666 | 913 ft | 136 kts | 162° |
| 2026-05-06 20:15 | 54.68098 | -6.24161 | 730 ft | 136 kts | 162° |
| 2026-05-06 20:15 | 54.67201 | -6.23656 | 553 ft | 135 kts | 162° |
| 2026-05-06 20:16 | 54.66309 | -6.23154 | 410 ft | 135 kts | 162° |
| 2026-05-06 20:16 | 54.65417 | -6.22667 | 292 ft | 133 kts | 162° |
| 2026-05-06 20:16 | 54.64649 | -6.22223 | 272 ft | 93 kts | 162° |
| 2026-05-06 20:16 | 54.64305 | -6.22024 | 274 ft | 27 kts | 159° |
| 2026-05-06 20:17 | 54.64213 | -6.21971 | 272 ft | 7 kts | 252° |
| 2026-05-06 20:17 | 54.64230 | -6.21998 | 272 ft | 4 kts | 332° |
| 2026-05-06 20:17 | 54.64306 | -6.22016 | 274 ft | 15 kts | 7° |
| 2026-05-06 20:17 | 54.64391 | -6.22057 | 276 ft | 18 kts | 337° |
| 2026-05-06 20:18 | 54.64465 | -6.22115 | 272 ft | 9 kts | 325° |
| 2026-05-06 20:18 | 54.64487 | -6.22200 | 275 ft | 7 kts | 276° |
| 2026-05-06 20:18 | 54.64499 | -6.22278 | 272 ft | 6 kts | 297° |
| 2026-05-06 20:18 | 54.64526 | -6.22321 | 272 ft | 5 kts | 330° |
| 2026-05-06 20:19 | 54.64554 | -6.22341 | 272 ft | 4 kts | 338° |
| 2026-05-06 20:19 | 54.64577 | -6.22355 | 275 ft | 3 kts | 341° |
| 2026-05-06 20:19 | 54.64605 | -6.22371 | 272 ft | 5 kts | 342° |
| 2026-05-06 20:19 | 54.64643 | -6.22393 | 273 ft | 6 kts | 341° |
| 2026-05-06 20:20 | 54.64686 | -6.22435 | 273 ft | 8 kts | 319° |
| 2026-05-06 20:20 | 54.64729 | -6.22509 | 272 ft | 10 kts | 315° |
| 2026-05-06 20:20 | 54.64786 | -6.22607 | 272 ft | 13 kts | 315° |
| 2026-05-06 20:20 | 54.64856 | -6.22729 | 272 ft | 15 kts | 320° |
| 2026-05-06 20:21 | 54.64950 | -6.22800 | 272 ft | 15 kts | 340° |
| 2026-05-06 20:21 | 54.65047 | -6.22883 | 275 ft | 17 kts | 316° |
| 2026-05-06 20:21 | 54.65110 | -6.23064 | 274 ft | 19 kts | 297° |
| 2026-05-06 20:21 | 54.65176 | -6.23273 | 272 ft | 21 kts | 299° |
| 2026-05-06 20:22 | 54.65244 | -6.23394 | 272 ft | 13 kts | 16° |
| 2026-05-06 20:22 | 54.65319 | -6.23359 | 272 ft | 11 kts | 349° |
| 2026-05-06 20:22 | 54.65385 | -6.23400 | 272 ft | 9 kts | 349° |
| 2026-05-06 20:22 | 54.65443 | -6.23382 | 272 ft | 8 kts | 18° |
| 2026-05-06 20:23 | 54.65491 | -6.23353 | 272 ft | 7 kts | 21° |
| 2026-05-06 20:23 | 54.65529 | -6.23317 | 273 ft | 6 kts | 37° |
| 2026-05-06 20:23 | 54.65569 | -6.23234 | 272 ft | 11 kts | 53° |
| 2026-05-06 20:23 | 54.65623 | -6.23108 | 272 ft | 15 kts | 53° |
| 2026-05-06 20:24 | 54.65694 | -6.22945 | 272 ft | 19 kts | 54° |
| 2026-05-06 20:24 | 54.65740 | -6.22727 | 272 ft | 20 kts | 82° |
| 2026-05-06 20:24 | 54.65754 | -6.22470 | 272 ft | 23 kts | 85° |
| 2026-05-06 20:24 | 54.65773 | -6.22209 | 272 ft | 18 kts | 77° |
| 2026-05-06 20:25 | 54.65813 | -6.22019 | 274 ft | 15 kts | 65° |
| 2026-05-06 20:25 | 54.65858 | -6.21854 | 274 ft | 16 kts | 64° |
| 2026-05-06 20:25 | 54.65909 | -6.21669 | 272 ft | 18 kts | 65° |
| 2026-05-06 20:25 | 54.65965 | -6.21461 | 272 ft | 20 kts | 65° |
| 2026-05-06 20:26 | 54.66008 | -6.21299 | 272 ft | 7 kts | 65° |
| 2026-05-06 20:26 | 54.66030 | -6.21229 | 276 ft | 6 kts | 46° |
| 2026-05-06 20:26 | 54.66064 | -6.21217 | 272 ft | 4 kts | 350° |
| 2026-05-06 20:26 | 54.66090 | -6.21233 | 272 ft | 4 kts | 337° |
| 2026-05-06 20:27 | 54.66119 | -6.21256 | 274 ft | 6 kts | 336° |
| 2026-05-06 20:27 | 54.66161 | -6.21300 | 272 ft | 8 kts | 301° |
| 2026-05-06 20:27 | 54.66149 | -6.21366 | 274 ft | 5 kts | 246° |
| 2026-05-06 20:27 | 54.66144 | -6.21385 | 272 ft | 0 kts | 245° |